sensor_id;sensor_type;location;lat;lon;timestamp;pressure;altitude;pressure_sealevel;temperature;humidity
12247;BME280;6186;52.022;4.692;2022-12-10T01:34:35;101013.34;;;0.78;100.00
12247;BME280;6186;52.022;4.692;2022-12-10T01:37:00;101011.72;;;0.83;100.00
12247;BME280;6186;52.022;4.692;2022-12-10T01:39:26;101020.47;;;0.91;100.00
12247;BME280;6186;52.022;4.692;2022-12-10T01:41:54;101010.09;;;0.89;100.00
12247;BME280;6186;52.022;4.692;2022-12-10T01:46:47;101010.19;;;0.94;100.00
12247;BME280;6186;52.022;4.692;2022-12-10T01:49:16;101018.91;;;0.99;100.00
12247;BME280;6186;52.022;4.692;2022-12-10T01:51:43;101018.13;;;1.06;100.00
12247;BME280;6186;52.022;4.692;2022-12-10T01:54:17;101019.91;;;1.07;100.00
12247;BME280;6186;52.022;4.692;2022-12-10T01:56:45;101026.78;;;1.07;100.00
12247;BME280;6186;52.022;4.692;2022-12-10T01:59:12;101023.31;;;1.05;100.00
12247;BME280;6186;52.022;4.692;2022-12-10T02:04:16;101032.09;;;1.14;100.00
12247;BME280;6186;52.022;4.692;2022-12-10T02:07:01;101020.94;;;1.18;100.00
12247;BME280;6186;52.022;4.692;2022-12-10T02:10:23;101028.75;;;1.21;100.00
12247;BME280;6186;52.022;4.692;2022-12-10T02:12:49;101013.16;;;1.18;100.00
12247;BME280;6186;52.022;4.692;2022-12-10T02:15:21;101017.53;;;1.22;100.00
12247;BME280;6186;52.022;4.692;2022-12-10T02:18:03;101020.13;;;1.21;100.00
12247;BME280;6186;52.022;4.692;2022-12-10T02:20:43;101014.06;;;1.20;100.00
12247;BME280;6186;52.022;4.692;2022-12-10T02:23:16;101019.25;;;1.22;100.00
12247;BME280;6186;52.022;4.692;2022-12-10T02:26:00;101022.72;;;1.21;100.00
12247;BME280;6186;52.022;4.692;2022-12-10T02:28:43;101020.97;;;1.21;100.00
12247;BME280;6186;52.022;4.692;2022-12-10T02:31:11;101014.91;;;1.19;100.00
12247;BME280;6186;52.022;4.692;2022-12-10T02:33:44;101018.38;;;1.21;100.00
12247;BME280;6186;52.022;4.692;2022-12-10T02:36:13;101020.97;;;1.21;100.00
12247;BME280;6186;52.022;4.692;2022-12-10T02:38:41;101014.03;;;1.19;100.00
12247;BME280;6186;52.022;4.692;2022-12-10T02:41:16;101003.56;;;1.11;100.00
12247;BME280;6186;52.022;4.692;2022-12-10T02:43:45;101024.53;;;1.26;100.00
12247;BME280;6186;52.022;4.692;2022-12-10T02:46:13;101000.19;;;1.18;100.00
12247;BME280;6186;52.022;4.692;2022-12-10T02:48:39;101012.38;;;1.25;100.00
12247;BME280;6186;52.022;4.692;2022-12-10T02:51:05;101012.34;;;1.22;100.00
12247;BME280;6186;52.022;4.692;2022-12-10T02:53:30;101013.25;;;1.24;100.00
12247;BME280;6186;52.022;4.692;2022-12-10T03:03:56;101020.81;;;1.12;100.00
12247;BME280;6186;52.022;4.692;2022-12-10T03:06:39;101020.00;;;1.13;100.00
12247;BME280;6186;52.022;4.692;2022-12-10T03:09:12;101018.19;;;1.08;100.00
12247;BME280;6186;52.022;4.692;2022-12-10T03:11:40;101029.41;;;1.08;100.00
12247;BME280;6186;52.022;4.692;2022-12-10T03:14:28;101015.63;;;1.09;100.00
12247;BME280;6186;52.022;4.692;2022-12-10T03:16:59;101020.78;;;1.09;100.00
12247;BME280;6186;52.022;4.692;2022-12-10T03:19:33;101013.03;;;1.09;100.00
12247;BME280;6186;52.022;4.692;2022-12-10T03:22:03;101018.19;;;1.09;100.00
12247;BME280;6186;52.022;4.692;2022-12-10T03:24:32;101013.81;;;1.05;100.00
12247;BME280;6186;52.022;4.692;2022-12-10T03:26:58;101017.31;;;1.07;100.00
12247;BME280;6186;52.022;4.692;2022-12-10T03:29:32;101006.91;;;1.04;100.00
12247;BME280;6186;52.022;4.692;2022-12-10T03:31:59;101004.34;;;1.07;100.00
12247;BME280;6186;52.022;4.692;2022-12-10T03:34:25;101006.03;;;1.05;100.00
12247;BME280;6186;52.022;4.692;2022-12-10T03:36:50;101005.19;;;1.06;100.00
12247;BME280;6186;52.022;4.692;2022-12-10T03:39:17;101009.53;;;1.07;100.00
12247;BME280;6186;52.022;4.692;2022-12-10T03:41:42;101013.03;;;1.09;100.00
12247;BME280;6186;52.022;4.692;2022-12-10T03:44:08;101012.16;;;1.10;100.00
12247;BME280;6186;52.022;4.692;2022-12-10T03:46:33;101018.19;;;1.09;100.00
12247;BME280;6186;52.022;4.692;2022-12-10T03:48:59;101016.50;;;1.11;100.00
12247;BME280;6186;52.022;4.692;2022-12-10T03:51:26;101019.09;;;1.11;100.00
12247;BME280;6186;52.022;4.692;2022-12-10T03:53:51;101024.28;;;1.11;100.00
12247;BME280;6186;52.022;4.692;2022-12-10T03:56:17;101024.28;;;1.11;100.00
12247;BME280;6186;52.022;4.692;2022-12-10T03:58:43;101022.53;;;1.10;100.00
12247;BME280;6186;52.022;4.692;2022-12-10T04:01:09;101025.97;;;1.09;100.00
12247;BME280;6186;52.022;4.692;2022-12-10T04:03:39;101009.44;;;1.01;100.00
12247;BME280;6186;52.022;4.692;2022-12-10T04:06:08;101027.69;;;1.07;100.00
12247;BME280;6186;52.022;4.692;2022-12-10T04:08:34;101028.59;;;1.11;100.00
12247;BME280;6186;52.022;4.692;2022-12-10T04:11:08;101028.56;;;1.09;100.00
12247;BME280;6186;52.022;4.692;2022-12-10T04:13:34;101025.00;;;1.03;100.00
12247;BME280;6186;52.022;4.692;2022-12-10T04:16:19;101027.69;;;1.07;100.00
12247;BME280;6186;52.022;4.692;2022-12-10T04:19:01;101028.50;;;1.06;100.00
12247;BME280;6186;52.022;4.692;2022-12-10T04:21:28;101029.38;;;1.07;100.00
12247;BME280;6186;52.022;4.692;2022-12-10T04:24:14;101025.09;;;1.07;100.00
12247;BME280;6186;52.022;4.692;2022-12-10T04:27:03;101017.28;;;1.04;100.00
12247;BME280;6186;52.022;4.692;2022-12-10T04:29:30;101019.03;;;1.08;100.00
12247;BME280;6186;52.022;4.692;2022-12-10T04:31:56;101022.53;;;1.10;100.00
12247;BME280;6186;52.022;4.692;2022-12-10T04:34:22;101027.75;;;1.12;100.00
12247;BME280;6186;52.022;4.692;2022-12-10T04:36:48;101033.75;;;1.08;100.00
12247;BME280;6186;52.022;4.692;2022-12-10T04:39:14;101038.06;;;1.10;100.00
12247;BME280;6186;52.022;4.692;2022-12-10T04:41:41;101031.16;;;1.09;100.00
12247;BME280;6186;52.022;4.692;2022-12-10T04:44:07;101031.19;;;1.12;100.00
12247;BME280;6186;52.022;4.692;2022-12-10T04:46:33;101021.69;;;1.10;100.00
12247;BME280;6186;52.022;4.692;2022-12-10T04:48:58;101027.81;;;1.16;100.00
12247;BME280;6186;52.022;4.692;2022-12-10T04:51:24;101034.78;;;1.20;100.00
12247;BME280;6186;52.022;4.692;2022-12-10T04:53:49;101024.41;;;1.20;100.00
12247;BME280;6186;52.022;4.692;2022-12-10T04:56:14;101031.34;;;1.21;100.00
12247;BME280;6186;52.022;4.692;2022-12-10T04:58:39;101031.34;;;1.21;100.00
12247;BME280;6186;52.022;4.692;2022-12-10T05:01:07;101025.31;;;1.21;100.00
12247;BME280;6186;52.022;4.692;2022-12-10T05:03:34;101033.94;;;1.21;100.00
12247;BME280;6186;52.022;4.692;2022-12-10T05:06:04;101025.31;;;1.21;100.00
12247;BME280;6186;52.022;4.692;2022-12-10T05:08:30;101024.44;;;1.23;100.00
12247;BME280;6186;52.022;4.692;2022-12-10T05:11:03;101015.84;;;1.24;100.00
12247;BME280;6186;52.022;4.692;2022-12-10T05:13:29;101024.44;;;1.23;100.00
12247;BME280;6186;52.022;4.692;2022-12-10T05:15:55;101023.59;;;1.23;100.00
12247;BME280;6186;52.022;4.692;2022-12-10T05:18:21;101033.19;;;1.27;100.00
12247;BME280;6186;52.022;4.692;2022-12-10T05:20:46;101034.03;;;1.27;100.00
12247;BME280;6186;52.022;4.692;2022-12-10T05:23:11;101035.78;;;1.28;100.00
12247;BME280;6186;52.022;4.692;2022-12-10T05:26:03;101030.53;;;1.25;100.00
12247;BME280;6186;52.022;4.692;2022-12-10T05:28:30;101031.34;;;1.21;100.00
12247;BME280;6186;52.022;4.692;2022-12-10T05:30:56;101035.59;;;1.18;100.00
12247;BME280;6186;52.022;4.692;2022-12-10T05:33:21;101030.38;;;1.15;100.00
12247;BME280;6186;52.022;4.692;2022-12-10T05:36:00;101015.63;;;1.11;100.00
12247;BME280;6186;52.022;4.692;2022-12-10T05:38:28;101023.44;;;1.14;100.00
12247;BME280;6186;52.022;4.692;2022-12-10T05:40:53;101028.63;;;1.14;100.00
12247;BME280;6186;52.022;4.692;2022-12-10T05:43:19;101034.69;;;1.14;100.00
12247;BME280;6186;52.022;4.692;2022-12-10T05:45:45;101024.28;;;1.11;100.00
12247;BME280;6186;52.022;4.692;2022-12-10T05:48:12;101021.81;;;1.19;100.00
12247;BME280;6186;52.022;4.692;2022-12-10T05:50:38;101020.97;;;1.21;100.00
12247;BME280;6186;52.022;4.692;2022-12-10T05:53:04;101029.63;;;1.23;100.00
12247;BME280;6186;52.022;4.692;2022-12-10T05:55:29;101025.34;;;1.24;100.00
12247;BME280;6186;52.022;4.692;2022-12-10T05:57:57;101033.09;;;1.22;100.00
12247;BME280;6186;52.022;4.692;2022-12-10T06:00:22;101033.88;;;1.17;100.00
12247;BME280;6186;52.022;4.692;2022-12-10T06:02:49;101037.41;;;1.22;100.00
12247;BME280;6186;52.022;4.692;2022-12-10T06:05:15;101033.84;;;1.15;100.00
12247;BME280;6186;52.022;4.692;2022-12-10T06:07:41;101040.78;;;1.18;100.00
12247;BME280;6186;52.022;4.692;2022-12-10T06:10:07;101039.09;;;1.20;100.00
12247;BME280;6186;52.022;4.692;2022-12-10T06:12:32;101040.84;;;1.21;100.00
12247;BME280;6186;52.022;4.692;2022-12-10T06:14:57;101046.88;;;1.21;100.00
12247;BME280;6186;52.022;4.692;2022-12-10T06:17:23;101047.78;;;1.23;100.00
12247;BME280;6186;52.022;4.692;2022-12-10T06:19:48;101053.03;;;1.25;100.00
12247;BME280;6186;52.022;4.692;2022-12-10T06:22:13;101055.56;;;1.23;100.00
12247;BME280;6186;52.022;4.692;2022-12-10T06:24:38;101052.03;;;1.18;100.00
12247;BME280;6186;52.022;4.692;2022-12-10T06:27:04;101054.66;;;1.20;100.00
12247;BME280;6186;52.022;4.692;2022-12-10T06:29:30;101056.34;;;1.18;100.00
12247;BME280;6186;52.022;4.692;2022-12-10T06:31:55;101055.50;;;1.17;100.00
12247;BME280;6186;52.022;4.692;2022-12-10T06:34:21;101058.97;;;1.19;100.00
12247;BME280;6186;52.022;4.692;2022-12-10T06:36:46;101066.78;;;1.21;100.00
12247;BME280;6186;52.022;4.692;2022-12-10T06:39:11;101052.84;;;1.14;100.00
12247;BME280;6186;52.022;4.692;2022-12-10T06:41:37;101065.03;;;1.21;100.00
12247;BME280;6186;52.022;4.692;2022-12-10T06:44:07;101063.31;;;1.20;100.00
12247;BME280;6186;52.022;4.692;2022-12-10T06:46:32;101063.28;;;1.19;100.00
12247;BME280;6186;52.022;4.692;2022-12-10T06:48:58;101066.75;;;1.19;100.00
12247;BME280;6186;52.022;4.692;2022-12-10T06:51:23;101065.00;;;1.18;100.00
12247;BME280;6186;52.022;4.692;2022-12-10T06:53:49;101066.69;;;1.16;100.00
12247;BME280;6186;52.022;4.692;2022-12-10T06:56:17;101068.41;;;1.16;100.00
12247;BME280;6186;52.022;4.692;2022-12-10T06:58:43;101066.69;;;1.15;100.00
12247;BME280;6186;52.022;4.692;2022-12-10T07:01:22;101074.44;;;1.13;100.00
12247;BME280;6186;52.022;4.692;2022-12-10T07:03:55;101080.41;;;1.09;100.00
12247;BME280;6186;52.022;4.692;2022-12-10T07:06:22;101078.66;;;1.08;100.00
12247;BME280;6186;52.022;4.692;2022-12-10T07:08:49;101080.41;;;1.09;100.00
12247;BME280;6186;52.022;4.692;2022-12-10T07:11:17;101080.34;;;1.06;100.00
12247;BME280;6186;52.022;4.692;2022-12-10T07:13:43;101081.19;;;1.05;100.00
12247;BME280;6186;52.022;4.692;2022-12-10T07:16:14;101086.50;;;1.11;100.00
12247;BME280;6186;52.022;4.692;2022-12-10T07:18:39;101089.97;;;1.13;100.00
12247;BME280;6186;52.022;4.692;2022-12-10T07:23:44;101092.69;;;1.21;100.00
12247;BME280;6186;52.022;4.692;2022-12-10T07:26:10;101091.00;;;1.23;100.00
12247;BME280;6186;52.022;4.692;2022-12-10T07:28:36;101087.50;;;1.21;100.00
12247;BME280;6186;52.022;4.692;2022-12-10T07:31:05;101096.13;;;1.20;100.00
12247;BME280;6186;52.022;4.692;2022-12-10T07:33:31;101089.97;;;1.13;100.00
12247;BME280;6186;52.022;4.692;2022-12-10T07:35:57;101081.31;;;1.13;100.00
12247;BME280;6186;52.022;4.692;2022-12-10T07:38:23;101095.22;;;1.18;100.00
12247;BME280;6186;52.022;4.692;2022-12-10T07:40:49;101099.59;;;1.20;100.00
12247;BME280;6186;52.022;4.692;2022-12-10T07:43:15;101090.94;;;1.20;100.00
12247;BME280;6186;52.022;4.692;2022-12-10T07:45:40;101103.06;;;1.21;100.00
12247;BME280;6186;52.022;4.692;2022-12-10T07:48:06;101101.31;;;1.21;100.00
12247;BME280;6186;52.022;4.692;2022-12-10T07:50:31;101103.91;;;1.20;100.00
12247;BME280;6186;52.022;4.692;2022-12-10T07:52:56;101106.47;;;1.18;100.00
12247;BME280;6186;52.022;4.692;2022-12-10T07:55:22;101106.47;;;1.18;100.00
12247;BME280;6186;52.022;4.692;2022-12-10T07:57:47;101107.38;;;1.20;100.00
12247;BME280;6186;52.022;4.692;2022-12-10T08:00:13;101104.75;;;1.17;100.00
12247;BME280;6186;52.022;4.692;2022-12-10T08:02:38;101107.28;;;1.16;100.00
12247;BME280;6186;52.022;4.692;2022-12-10T08:05:04;101111.63;;;1.15;100.00
12247;BME280;6186;52.022;4.692;2022-12-10T08:07:29;101109.81;;;1.11;100.00
12247;BME280;6186;52.022;4.692;2022-12-10T08:09:54;101117.63;;;1.14;100.00
12247;BME280;6186;52.022;4.692;2022-12-10T08:12:19;101115.88;;;1.12;100.00
12247;BME280;6186;52.022;4.692;2022-12-10T08:14:45;101115.81;;;1.10;100.00
12247;BME280;6186;52.022;4.692;2022-12-10T08:17:10;101122.69;;;1.08;100.00
12247;BME280;6186;52.022;4.692;2022-12-10T08:19:35;101125.28;;;1.08;100.00
12247;BME280;6186;52.022;4.692;2022-12-10T08:22:01;101130.56;;;1.11;100.00
12247;BME280;6186;52.022;4.692;2022-12-10T08:24:26;101136.63;;;1.12;100.00
12247;BME280;6186;52.022;4.692;2022-12-10T08:26:51;101139.16;;;1.10;100.00
12247;BME280;6186;52.022;4.692;2022-12-10T08:29:17;101146.88;;;1.07;100.00
12247;BME280;6186;52.022;4.692;2022-12-10T08:31:42;101146.84;;;1.04;100.00
12247;BME280;6186;52.022;4.692;2022-12-10T08:34:15;101143.38;;;1.04;100.00
12247;BME280;6186;52.022;4.692;2022-12-10T08:36:42;101147.69;;;1.03;100.00
12247;BME280;6186;52.022;4.692;2022-12-10T08:39:08;101138.19;;;1.02;100.00
12247;BME280;6186;52.022;4.692;2022-12-10T08:41:35;101147.72;;;1.06;100.00
12247;BME280;6186;52.022;4.692;2022-12-10T08:44:02;101156.38;;;1.07;100.00
12247;BME280;6186;52.022;4.692;2022-12-10T08:46:27;101148.63;;;1.08;100.00
12247;BME280;6186;52.022;4.692;2022-12-10T08:48:54;101123.22;;;0.89;100.00
12247;BME280;6186;52.022;4.692;2022-12-10T08:51:20;101162.47;;;1.09;100.00
12247;BME280;6186;52.022;4.692;2022-12-10T08:53:45;101151.19;;;1.07;100.00
12247;BME280;6186;52.022;4.692;2022-12-10T08:56:11;101155.63;;;1.12;100.00
12247;BME280;6186;52.022;4.692;2022-12-10T08:58:37;101150.31;;;1.06;100.00
12247;BME280;6186;52.022;4.692;2022-12-10T09:01:08;101159.00;;;1.08;100.00
12247;BME280;6186;52.022;4.692;2022-12-10T09:03:35;101160.69;;;1.06;100.00
12247;BME280;6186;52.022;4.692;2022-12-10T09:06:06;101167.63;;;1.07;100.00
12247;BME280;6186;52.022;4.692;2022-12-10T09:08:32;101156.34;;;1.04;100.00
12247;BME280;6186;52.022;4.692;2022-12-10T09:10:58;101159.72;;;1.00;100.00
12247;BME280;6186;52.022;4.692;2022-12-10T09:13:28;101169.22;;;1.01;100.00
12247;BME280;6186;52.022;4.692;2022-12-10T09:15:54;101171.75;;;0.98;100.00
12247;BME280;6186;52.022;4.692;2022-12-10T09:18:19;101175.25;;;1.00;100.00
12247;BME280;6186;52.022;4.692;2022-12-10T09:20:45;101171.00;;;1.03;100.00
12247;BME280;6186;52.022;4.692;2022-12-10T09:23:10;101167.53;;;1.03;100.00
12247;BME280;6186;52.022;4.692;2022-12-10T09:25:36;101171.81;;;1.01;100.00
12247;BME280;6186;52.022;4.692;2022-12-10T09:28:01;101159.59;;;0.93;100.00
12247;BME280;6186;52.022;4.692;2022-12-10T09:30:26;101177.69;;;0.90;100.00
12247;BME280;6186;52.022;4.692;2022-12-10T09:32:51;101182.03;;;0.93;100.00
12247;BME280;6186;52.022;4.692;2022-12-10T09:35:17;101182.88;;;0.90;100.00
12247;BME280;6186;52.022;4.692;2022-12-10T09:37:42;101186.22;;;0.85;100.00
12247;BME280;6186;52.022;4.692;2022-12-10T09:40:14;101205.41;;;0.94;100.00
12247;BME280;6186;52.022;4.692;2022-12-10T09:42:46;101204.66;;;1.00;100.00
12247;BME280;6186;52.022;4.692;2022-12-10T09:48:13;101198.63;;;1.03;100.00
12247;BME280;6186;52.022;4.692;2022-12-10T09:51:05;101200.47;;;1.08;100.00
12247;BME280;6186;52.022;4.692;2022-12-10T09:53:37;101202.06;;;1.00;100.00
12247;BME280;6186;52.022;4.692;2022-12-10T09:56:04;101198.56;;;0.98;100.00
12247;BME280;6186;52.022;4.692;2022-12-10T09:58:30;101209.84;;;1.02;100.00
12247;BME280;6186;52.022;4.692;2022-12-10T10:01:01;101209.06;;;1.04;100.00
12247;BME280;6186;52.022;4.692;2022-12-10T10:03:31;101200.38;;;1.02;100.00
12247;BME280;6186;52.022;4.692;2022-12-10T10:06:02;101193.41;;;1.00;100.00
12247;BME280;6186;52.022;4.692;2022-12-10T10:08:31;101210.75;;;1.02;100.00
12247;BME280;6186;52.022;4.692;2022-12-10T10:10:59;101197.63;;;0.94;100.00
12247;BME280;6186;52.022;4.692;2022-12-10T10:13:34;101203.75;;;0.98;100.00
12247;BME280;6186;52.022;4.692;2022-12-10T10:16:34;101200.28;;;0.99;100.00
12247;BME280;6186;52.022;4.692;2022-12-10T10:19:06;101206.41;;;1.03;100.00
12247;BME280;6186;52.022;4.692;2022-12-10T10:21:39;101208.28;;;1.10;100.00
12247;BME280;6186;52.022;4.692;2022-12-10T10:24:07;101209.09;;;1.07;100.00
12247;BME280;6186;52.022;4.692;2022-12-10T10:26:37;101210.00;;;1.09;100.00
12247;BME280;6186;52.022;4.692;2022-12-10T10:29:06;101201.28;;;1.04;100.00
12247;BME280;6186;52.022;4.692;2022-12-10T10:31:35;101201.22;;;1.03;100.00
12247;BME280;6186;52.022;4.692;2022-12-10T10:34:05;101209.91;;;1.06;100.00
12247;BME280;6186;52.022;4.692;2022-12-10T10:36:36;101206.47;;;1.06;100.00
12247;BME280;6186;52.022;4.692;2022-12-10T10:41:42;101200.41;;;1.05;100.00
12247;BME280;6186;52.022;4.692;2022-12-10T10:44:19;101211.72;;;1.09;100.00
12247;BME280;6186;52.022;4.692;2022-12-10T10:46:47;101210.88;;;1.10;100.00
12247;BME280;6186;52.022;4.692;2022-12-10T10:49:25;101205.63;;;1.08;100.00
12247;BME280;6186;52.022;4.692;2022-12-10T10:51:58;101218.81;;;1.19;100.00
12247;BME280;6186;52.022;4.692;2022-12-10T10:54:41;101205.03;;;1.21;100.00
12247;BME280;6186;52.022;4.692;2022-12-10T10:57:14;101191.97;;;1.15;100.00
12247;BME280;6186;52.022;4.692;2022-12-10T10:59:41;101192.81;;;1.14;100.00
12247;BME280;6186;52.022;4.692;2022-12-10T11:02:27;101208.50;;;1.22;100.00
12247;BME280;6186;52.022;4.692;2022-12-10T11:04:55;101205.97;;;1.25;100.00
12247;BME280;6186;52.022;4.692;2022-12-10T11:07:32;101211.19;;;1.28;100.00
12247;BME280;6186;52.022;4.692;2022-12-10T11:09:58;101217.31;;;1.31;100.00
12247;BME280;6186;52.022;4.692;2022-12-10T11:12:36;101212.19;;;1.34;100.00
12247;BME280;6186;52.022;4.692;2022-12-10T11:15:27;101213.91;;;1.34;100.00
12247;BME280;6186;52.022;4.692;2022-12-10T11:17:55;101206.03;;;1.29;100.00
12247;BME280;6186;52.022;4.692;2022-12-10T11:20:32;101201.63;;;1.24;100.00
12247;BME280;6186;52.022;4.692;2022-12-10T11:23:00;101206.81;;;1.25;100.00
12247;BME280;6186;52.022;4.692;2022-12-10T11:28:36;101201.50;;;1.18;100.00
12247;BME280;6186;52.022;4.692;2022-12-10T11:31:36;101209.38;;;1.22;100.00
12247;BME280;6186;52.022;4.692;2022-12-10T11:34:27;101207.63;;;1.21;100.00
12247;BME280;6186;52.022;4.692;2022-12-10T11:45:24;101206.91;;;1.28;100.00
12247;BME280;6186;52.022;4.692;2022-12-10T12:14:55;101190.91;;;1.53;100.00
12247;BME280;6186;52.022;4.692;2022-12-10T12:17:27;101202.19;;;1.55;100.00
12247;BME280;6186;52.022;4.692;2022-12-10T12:20:00;101190.16;;;1.59;100.00
12247;BME280;6186;52.022;4.692;2022-12-10T12:22:34;101191.91;;;1.61;100.00
12247;BME280;6186;52.022;4.692;2022-12-10T12:25:05;101194.56;;;1.64;100.00
12247;BME280;6186;52.022;4.692;2022-12-10T12:27:45;101192.81;;;1.65;100.00
12247;BME280;6186;52.022;4.692;2022-12-10T12:30:21;101184.22;;;1.66;100.00
12247;BME280;6186;52.022;4.692;2022-12-10T12:35:44;101179.03;;;1.66;100.00
12247;BME280;6186;52.022;4.692;2022-12-10T12:38:26;101184.19;;;1.64;100.00
12247;BME280;6186;52.022;4.692;2022-12-10T12:41:10;101185.88;;;1.62;100.00
12247;BME280;6186;52.022;4.692;2022-12-10T12:43:55;101177.19;;;1.59;100.00
12247;BME280;6186;52.022;4.692;2022-12-10T12:46:49;101170.19;;;1.55;100.00
12247;BME280;6186;52.022;4.692;2022-12-10T12:49:26;101189.16;;;1.52;100.00
12247;BME280;6186;52.022;4.692;2022-12-10T12:51:58;101183.94;;;1.49;100.00
12247;BME280;6186;52.022;4.692;2022-12-10T12:54:25;101184.78;;;1.50;100.00
12247;BME280;6186;52.022;4.692;2022-12-10T12:57:20;101199.53;;;1.52;100.00
12247;BME280;6186;52.022;4.692;2022-12-10T13:05:14;101183.28;;;1.62;100.00
12247;BME280;6186;52.022;4.692;2022-12-10T13:07:41;101195.41;;;1.65;100.00
12247;BME280;6186;52.022;4.692;2022-12-10T13:10:08;101210.16;;;1.67;100.00
12247;BME280;6186;52.022;4.692;2022-12-10T13:15:43;101202.44;;;1.70;100.00
12247;BME280;6186;52.022;4.692;2022-12-10T13:24:09;101214.81;;;1.86;100.00
12247;BME280;6186;52.022;4.692;2022-12-10T13:26:35;101194.88;;;1.84;100.00
12247;BME280;6186;52.022;4.692;2022-12-10T13:31:55;101213.03;;;1.85;100.00
12247;BME280;6186;52.022;4.692;2022-12-10T13:34:34;101212.19;;;1.85;100.00
12247;BME280;6186;52.022;4.692;2022-12-10T13:45:01;101231.19;;;1.82;100.00
12247;BME280;6186;52.022;4.692;2022-12-10T13:47:46;101220.75;;;1.79;100.00
12247;BME280;6186;52.022;4.692;2022-12-10T14:01:13;101215.59;;;1.82;100.00
12247;BME280;6186;52.022;4.692;2022-12-10T14:03:44;101217.38;;;1.83;100.00
12247;BME280;6186;52.022;4.692;2022-12-10T14:06:16;101215.59;;;1.81;100.00
12247;BME280;6186;52.022;4.692;2022-12-10T14:08:54;101210.38;;;1.79;100.00
12247;BME280;6186;52.022;4.692;2022-12-10T14:11:23;101213.81;;;1.78;100.00
12247;BME280;6186;52.022;4.692;2022-12-10T14:13:54;101220.69;;;1.76;100.00
12247;BME280;6186;52.022;4.692;2022-12-10T14:16:23;101214.69;;;1.77;100.00
12247;BME280;6186;52.022;4.692;2022-12-10T14:18:55;101220.72;;;1.78;100.00
12247;BME280;6186;52.022;4.692;2022-12-10T14:21:22;101215.59;;;1.81;100.00
12247;BME280;6186;52.022;4.692;2022-12-10T14:23:50;101213.75;;;1.74;100.00
12247;BME280;6186;52.022;4.692;2022-12-10T14:26:36;101210.31;;;1.76;100.00
12247;BME280;6186;52.022;4.692;2022-12-10T14:31:38;101203.28;;;1.69;100.00
12247;BME280;6186;52.022;4.692;2022-12-10T14:34:08;101203.19;;;1.65;100.00
12247;BME280;6186;52.022;4.692;2022-12-10T14:36:44;101217.06;;;1.67;100.00
12247;BME280;6186;52.022;4.692;2022-12-10T14:39:23;101213.63;;;1.66;100.00
12247;BME280;6186;52.022;4.692;2022-12-10T14:41:51;101206.69;;;1.65;100.00
12247;BME280;6186;52.022;4.692;2022-12-10T14:44:18;101214.53;;;1.68;100.00
12247;BME280;6186;52.022;4.692;2022-12-10T14:46:47;101210.13;;;1.64;100.00
12247;BME280;6186;52.022;4.692;2022-12-10T14:49:24;101220.59;;;1.70;100.00
12247;BME280;6186;52.022;4.692;2022-12-10T14:51:50;101228.44;;;1.73;100.00
12247;BME280;6186;52.022;4.692;2022-12-10T14:54:37;101219.88;;;1.79;100.00
12247;BME280;6186;52.022;4.692;2022-12-10T14:57:08;101226.00;;;1.82;100.00
12247;BME280;6186;52.022;4.692;2022-12-10T14:59:42;101228.66;;;1.87;100.00
12247;BME280;6186;52.022;4.692;2022-12-10T15:02:24;101226.91;;;1.86;100.00
12247;BME280;6186;52.022;4.692;2022-12-10T15:04:51;101230.41;;;1.88;100.00
12247;BME280;6186;52.022;4.692;2022-12-10T15:07:21;101230.41;;;1.88;100.00
12247;BME280;6186;52.022;4.692;2022-12-10T15:09:49;101235.56;;;1.86;100.00
12247;BME280;6186;52.022;4.692;2022-12-10T15:12:38;101246.94;;;1.93;100.00
12247;BME280;6186;52.022;4.692;2022-12-10T15:15:18;101242.59;;;1.93;100.00
12247;BME280;6186;52.022;4.692;2022-12-10T15:17:57;101240.09;;;1.98;100.00
12247;BME280;6186;52.022;4.692;2022-12-10T15:20:30;101246.19;;;2.02;100.00
12247;BME280;6186;52.022;4.692;2022-12-10T15:23:08;101247.09;;;2.04;100.00
12247;BME280;6186;52.022;4.692;2022-12-10T15:25:45;101247.91;;;2.01;100.00
12247;BME280;6186;52.022;4.692;2022-12-10T15:28:26;101254.03;;;2.05;100.00
12247;BME280;6186;52.022;4.692;2022-12-10T15:30:51;101244.59;;;2.10;100.00
12247;BME280;6186;52.022;4.692;2022-12-10T15:33:33;101249.81;;;2.13;100.00
12247;BME280;6186;52.022;4.692;2022-12-10T15:36:01;101255.09;;;2.17;100.00
12247;BME280;6186;52.022;4.692;2022-12-10T15:38:27;101265.53;;;2.20;100.00
12247;BME280;6186;52.022;4.692;2022-12-10T15:40:58;101259.50;;;2.23;100.00
12247;BME280;6186;52.022;4.692;2022-12-10T15:43:26;101268.19;;;2.25;100.00
12247;BME280;6186;52.022;4.692;2022-12-10T15:45:54;101254.31;;;2.21;100.00
12247;BME280;6186;52.022;4.692;2022-12-10T15:48:20;101258.66;;;2.24;100.00
12247;BME280;6186;52.022;4.692;2022-12-10T15:50:45;101250.84;;;2.24;100.00
12247;BME280;6186;52.022;4.692;2022-12-10T15:53:12;101257.81;;;2.25;100.00
12247;BME280;6186;52.022;4.692;2022-12-10T15:55:38;101254.38;;;2.27;100.00
12247;BME280;6186;52.022;4.692;2022-12-10T15:58:10;101255.25;;;2.28;100.00
12247;BME280;6186;52.022;4.692;2022-12-10T16:00:35;101255.22;;;2.26;100.00
12247;BME280;6186;52.022;4.692;2022-12-10T16:03:03;101255.25;;;2.28;100.00
12247;BME280;6186;52.022;4.692;2022-12-10T16:05:31;101248.38;;;2.31;100.00
12247;BME280;6186;52.022;4.692;2022-12-10T16:08:08;101244.09;;;2.35;100.00
12247;BME280;6186;52.022;4.692;2022-12-10T16:10:36;101251.06;;;2.36;100.00
12247;BME280;6186;52.022;4.692;2022-12-10T16:13:04;101243.22;;;2.33;100.00
12247;BME280;6186;52.022;4.692;2022-12-10T16:15:39;101235.44;;;2.33;100.00
12247;BME280;6186;52.022;4.692;2022-12-10T16:18:09;101247.63;;;2.38;100.00
12247;BME280;6186;52.022;4.692;2022-12-10T16:20:35;101250.25;;;2.40;100.00
12247;BME280;6186;52.022;4.692;2022-12-10T16:23:01;101247.66;;;2.40;100.00
12247;BME280;6186;52.022;4.692;2022-12-10T16:25:30;101256.34;;;2.42;100.00
12247;BME280;6186;52.022;4.692;2022-12-10T16:27:58;101241.66;;;2.44;100.00
12247;BME280;6186;52.022;4.692;2022-12-10T16:30:35;101242.47;;;2.43;100.00